^^

Nearby METAR Reports

 

KBJC - Broomfield, Colorado
Distance from station: ESE 4mi, 6km
Updated: 01/17/2019 4:48pm
NOT Current
Partly cloudy
Partly cloudy
 Wind from calm
Wind: Calm
Temperature: 46°F , 8°C
Dew Point: 27°F , -3°C
Humidity: 46%
Barometer: 1009.8 hPa
Clouds: Partly cloudy
Visibility: 50 miles , 80 km
Cloud details: Few Clouds 10000 ft
Partly cloudy 20000 ft
2019/01/17 23:48 KBJC 172348Z 00000KT 50SM FEW100 SCT200 08/M03 A2982
KBDU - Boulder, Colorado
Distance from station: NNW 8mi, 13km
Updated: 01/17/2019 7:30pm
Clear
Clear
 Wind from SSW
Wind: SSW 9 mph , 15 km/h, Gust: 21 mph , 33 km/h
Temperature: 50°F , 10°C
Wind Chill: 46°F , 8°C
Dew Point: 23°F , -5°C
Humidity: 35%
Barometer: 1008.5 hPa
Clouds: Clear
Visibility: 10 miles , 16 km
2019/01/18 02:30 KBDU 180230Z AUTO 20008G18KT 10SM CLR 10/M05 A2978 RMK AO2
KEIK - Erie, Colorado
Distance from station: NE 8mi, 14km
Updated: 01/17/2019 7:36pm
Clear
Clear
 Wind from W
Wind: W 15 mph , 24 km/h, Gust: 28 mph , 44 km/h
Temperature: 50°F , 10°C
Wind Chill: 45°F , 7°C
Dew Point: 23°F , -5°C
Humidity: 35%
Barometer: 1010.2 hPa
Clouds: Clear
Visibility: 10 miles , 16 km
2019/01/18 02:36 KEIK 180236Z AUTO 28013G24KT 10SM CLR 10/M05 A2983 RMK AO2 T00991051
 
KLMO - Longmont, Colorado
Distance from station: N 17mi, 27km
Updated: 01/17/2019 7:35pm
Clear
Clear
 Wind from N
Wind: N 5 mph , 7 km/h
Temperature: 50°F , 10°C
Wind Chill: 48°F , 9°C
Dew Point: 27°F , -3°C
Humidity: 40%
Barometer: 1008.8 hPa
Clouds: Clear
Visibility: 10 miles , 16 km
2019/01/18 02:35 KLMO 180235Z AUTO 36004KT 10SM CLR 10/M03 A2979 RMK AO2 T00991035
KDEN - Denver (DIA), Colorado
Distance from station: E 27mi, 44km
Updated: 01/17/2019 7:53pm
Partly cloudy
Partly cloudy
 Wind from calm
Wind: Calm
Temperature: 39°F , 4°C
Dew Point: 27°F , -3°C
Humidity: 61%
Barometer: 1008.1 hPa
Clouds: Partly cloudy
Visibility: 10 miles , 16 km
Cloud details: Partly cloudy 11000 ft
Partly cloudy 22000 ft
2019/01/18 02:53 KDEN 180253Z 00000KT 10SM SCT110 SCT220 04/M03 A2977 RMK AO2 SLP071 T00391028 58005
KFNL - Ft Collins, Colorado
Distance from station: N 37mi, 59km
Updated: 01/17/2019 6:56pm
Mostly cloudy
Mostly cloudy
 Wind from WSW
Wind: WSW 8 mph , 13 km/h
Temperature: 46°F , 8°C
Wind Chill: 42°F , 6°C
Dew Point: 21°F , -6°C
Humidity: 37%
Barometer: 1009.1 hPa
Clouds: Mostly cloudy
Visibility: 10 miles , 16 km
Cloud details: Mostly cloudy 10000 ft
2019/01/18 01:56 KFNL 180156Z AUTO 25007KT 10SM BKN100 08/M06 A2980 RMK AO2 SLP099 T00831061 PNO $
 
KGXY - Greeley, Colorado
Distance from station: NE 44mi, 71km
Updated: 01/17/2019 6:56pm
Few Clouds
Few Clouds
 Wind from calm
Wind: Calm
Temperature: 39°F , 4°C
Dew Point: 23°F , -5°C
Humidity: 52%
Barometer: 1008.8 hPa
Clouds: Few Clouds
Visibility: 10 miles , 16 km
Cloud details: Few Clouds 12000 ft
2019/01/18 01:56 KGXY 180156Z AUTO 00000KT 10SM FEW120 04/M05 A2979 RMK AO2 SLP129 T00391050
KSBS - Steamboat Springs, Colorado
Distance from station: N 99mi, 159km
Updated: 01/17/2019 7:35pm
Overcast
Overcast
 Wind from calm
Wind: Calm
Temperature: 32°F , 0°C
Dew Point: 32°F , 0°C
Humidity: 100%
Barometer: 1012.5 hPa
Clouds: Overcast
Visibility: 3 miles , 5 km
Cloud details: Overcast 1300 ft
2019/01/18 02:35 KSBS 180235Z AUTO 00000KT 3SM OVC013 00/00 A2990 RMK AO1 T00001001
KEGE - Eagle Co. Region, Colorado
Distance from station: SW 96mi, 154km
Updated: 01/17/2019 6:56pm
Light snow, Overcast
Light snow, Overcast
 Wind from E
Wind: E 6 mph , 9 km/h
Temperature: 34°F , 1°C
Wind Chill: 29°F , -2°C
Dew Point: 30°F , -1°C
Humidity: 87%
Barometer: 1015.6 hPa
Summary: Light Snow
Clouds: Overcast
Visibility: 9 miles , 14 km
Cloud details: Few Clouds 1300 ft
Mostly cloudy 4400 ft
Overcast 5500 ft
2019/01/18 01:56 KEGE 180156Z 09005KT 9SM -SN FEW013 BKN044 OVC055 01/M01 A2999 RMK AO2 RAB27E32 SLP195 P0000 T00061006
 
KGJT - Grand Junction, Colorado
Distance from station: WSW 187mi, 302km
Updated: 01/17/2019 7:53pm
Mist, Overcast
Mist, Overcast
 Wind from N
Wind: N 8 mph , 13 km/h
Temperature: 32°F , 0°C
Wind Chill: 25°F , -4°C
Dew Point: 32°F , 0°C
Humidity: 100%
Barometer: 1014.9 hPa
Summary: Mist
Clouds: Overcast
Visibility: 1 1/4 miles , 2 km
Cloud details: Partly cloudy 100 ft
Mostly cloudy 1200 ft
Overcast 6000 ft
2019/01/18 02:53 KGJT 180253Z 36007KT 1 1/4SM R11/4000VP6000FT BR SCT001 BKN012 OVC060 00/00 A2997 RMK AO2 SLP160 60000 T00000000 58013
KDRO - Durango, Colorado
Distance from station: SW 238mi, 383km
Updated: 01/17/2019 7:53pm
Light snow, Mist, Overcast
Light snow, Mist, Overcast
 Wind from ENE
Wind: ENE 5 mph , 7 km/h
Temperature: 32°F , 0°C
Wind Chill: 27°F , -3°C
Dew Point: 32°F , 0°C
Humidity: 100%
Barometer: 1020.3 hPa
Summary: Light snow, Mist
Clouds: Overcast
Visibility: 5 miles , 8 km
Cloud details: Few Clouds 1300 ft
Mostly cloudy 2900 ft
Overcast 3800 ft
2019/01/18 02:53 KDRO 180253Z AUTO 06004KT 5SM -SN BR FEW013 BKN029 OVC038 00/00 A3013 RMK AO2 SLP244 P0003 60003 T00000000 58005
KCYS - Cheyenne, Wyoming
Distance from station: N 86mi, 139km
Updated: 01/17/2019 7:53pm
Overcast
Overcast
 Wind from varies
Wind: varies 7 mph , 11 km/h
Temperature: 43°F , 6°C
Wind Chill: 39°F , 4°C
Dew Point: 23°F , -5°C
Humidity: 46%
Barometer: 1009.8 hPa
Clouds: Overcast
Visibility: 10 miles , 16 km
Cloud details: Overcast 4200 ft
2019/01/18 02:53 KCYS 180253Z VRB06KT 10SM OVC042 06/M05 A2982 RMK AO2 SLP083 T00561050 55001
 
KCOS - Colorado Springs, Colorado
Distance from station: S 74mi, 120km
Updated: 01/17/2019 7:54pm
Partly cloudy
Partly cloudy
 Wind from S
Wind: S 17 mph , 28 km/h, Gust: 22 mph , 35 km/h
Temperature: 48°F , 9°C
Wind Chill: 42°F , 6°C
Dew Point: 12°F , -11°C
Humidity: 23%
Barometer: 1009.8 hPa
Clouds: Partly cloudy
Visibility: 10 miles , 16 km
Cloud details: Few Clouds 12000 ft
Partly cloudy 23000 ft
2019/01/18 02:54 KCOS 180254Z 18015G19KT 10SM FEW120 SCT230 09/M11 A2982 RMK AO2 PK WND 22027/0156 SLP098 T00941106 58012
KPUB - Pueblo, Colorado
Distance from station: S 119mi, 192km
Updated: 01/17/2019 7:53pm
Clear
Clear
 Wind from N
Wind: N 6 mph , 9 km/h
Temperature: 36°F , 2°C
Wind Chill: 31°F , -1°C
Dew Point: 19°F , -7°C
Humidity: 52%
Barometer: 1010.2 hPa
Clouds: Clear
Visibility: 10 miles , 16 km
2019/01/18 02:53 KPUB 180253Z 35005KT 10SM CLR 02/M07 A2983 RMK AO2 SLP114 T00221067 58005
KLAA - Lamar, Colorado
Distance from station: ESE 184mi, 297km
Updated: 01/17/2019 7:53pm
Clear
Clear
 Wind from varies
Wind: varies 3 mph , 6 km/h
Temperature: 39°F , 4°C
Dew Point: 28°F , -2°C
Humidity: 65%
Barometer: 1008.8 hPa
Clouds: Clear
Visibility: 10 miles , 16 km
2019/01/18 02:53 KLAA 180253Z AUTO VRB03KT 10SM CLR 04/M02 A2979 RMK AO2 SLP099 T00441022 58016